createdAt,value
2019-01-04T00:01:12.437Z,-2.20
2019-01-04T00:03:38.626Z,-2.20
2019-01-04T00:06:04.801Z,-2.20
2019-01-04T00:08:30.988Z,-2.20
2019-01-04T00:10:57.173Z,-2.20
2019-01-04T00:13:23.366Z,-2.30
2019-01-04T00:15:49.535Z,-2.20
2019-01-04T00:18:15.759Z,-2.30
2019-01-04T00:20:41.905Z,-2.40
2019-01-04T00:23:08.090Z,-2.40
2019-01-04T00:25:34.263Z,-2.50
2019-01-04T00:28:00.445Z,-2.50
2019-01-04T00:30:26.622Z,-2.50
2019-01-04T00:32:52.817Z,-2.60
2019-01-04T00:35:19.009Z,-2.60
2019-01-04T00:37:45.183Z,-2.70
2019-01-04T00:40:11.371Z,-2.70
2019-01-04T00:42:37.544Z,-2.80
2019-01-04T00:45:06.435Z,-2.70
2019-01-04T00:47:32.613Z,-2.80
2019-01-04T00:49:58.800Z,-2.70
2019-01-04T00:52:24.987Z,-2.70
2019-01-04T00:54:52.968Z,-2.70
2019-01-04T00:57:27.548Z,-2.80
2019-01-04T01:00:37.474Z,-2.80
2019-01-04T01:03:47.334Z,-2.70
2019-01-04T01:07:00.946Z,-2.80
2019-01-04T01:09:41.604Z,-2.90
2019-01-04T01:12:33.731Z,-2.90
2019-01-04T01:15:14.218Z,-2.90
2019-01-04T01:18:12.727Z,-2.90
2019-01-04T01:21:02.454Z,-2.90
2019-01-04T01:24:17.004Z,-3.10
2019-01-04T01:26:57.624Z,-3.10
2019-01-04T01:30:01.000Z,-3.20
2019-01-04T01:32:59.535Z,-3.20
2019-01-04T01:35:46.495Z,-3.20
2019-01-04T01:38:48.469Z,-3.30
2019-01-04T01:41:46.366Z,-3.30
2019-01-04T01:44:29.568Z,-3.20
2019-01-04T01:47:09.732Z,-3.20
2019-01-04T01:49:41.648Z,-3.20
2019-01-04T01:52:22.547Z,-3.20
2019-01-04T01:54:48.733Z,-3.10
2019-01-04T01:57:14.909Z,-3.10
2019-01-04T01:59:41.269Z,-3.10
2019-01-04T02:02:07.463Z,-3.10
2019-01-04T02:04:33.647Z,-3.10
2019-01-04T02:06:59.824Z,-3.10
2019-01-04T02:09:26.016Z,-3.10
2019-01-04T02:11:52.194Z,-3.10
2019-01-04T02:14:18.632Z,-3.10
2019-01-04T02:16:44.817Z,-3.10
2019-01-04T02:19:10.998Z,-3.00
2019-01-04T02:21:37.181Z,-2.90
2019-01-04T02:24:03.368Z,-2.80
2019-01-04T02:26:29.548Z,-2.60
2019-01-04T02:28:55.727Z,-2.50
2019-01-04T02:31:21.913Z,-2.40
2019-01-04T02:33:48.124Z,-2.30
2019-01-04T02:36:14.296Z,-2.10
2019-01-04T02:38:40.469Z,-2.10
2019-01-04T02:41:06.662Z,-2.00
2019-01-04T02:43:32.836Z,-1.90
2019-01-04T02:45:59.033Z,-1.90
2019-01-04T02:48:25.210Z,-1.80
2019-01-04T02:50:51.395Z,-1.70
2019-01-04T02:53:17.571Z,-1.70
2019-01-04T02:55:43.755Z,-1.60
2019-01-04T02:58:09.933Z,-1.50
2019-01-04T03:00:36.117Z,-1.50
2019-01-04T03:03:02.393Z,-1.50
2019-01-04T03:05:28.585Z,-1.40
2019-01-04T03:07:54.760Z,-1.30
2019-01-04T03:10:20.946Z,-1.30
2019-01-04T03:12:47.117Z,-1.20
2019-01-04T03:15:13.295Z,-1.20
2019-01-04T03:17:39.479Z,-1.10
2019-01-04T03:20:05.868Z,-1.10
2019-01-04T03:22:32.048Z,-1.10
2019-01-04T03:24:58.232Z,-1.10
2019-01-04T03:27:24.413Z,-1.00
2019-01-04T03:29:50.605Z,-1.00
2019-01-04T03:32:16.792Z,-1.00
2019-01-04T03:34:42.976Z,-0.90
2019-01-04T03:37:09.149Z,-0.80
2019-01-04T03:39:35.342Z,-0.90
2019-01-04T03:42:01.620Z,-0.80
2019-01-04T03:44:27.798Z,-0.80
2019-01-04T03:46:53.981Z,-0.80
2019-01-04T03:49:20.156Z,-0.80
2019-01-04T03:51:46.343Z,-0.80
2019-01-04T03:54:12.515Z,-0.80
2019-01-04T03:56:38.713Z,-0.80
2019-01-04T03:59:04.890Z,-0.90
2019-01-04T04:01:31.078Z,-0.80
2019-01-04T04:03:57.252Z,-0.80
2019-01-04T04:06:23.441Z,-0.80
2019-01-04T04:08:49.612Z,-0.80
2019-01-04T04:11:15.794Z,-0.80
2019-01-04T04:13:41.972Z,-0.70
2019-01-04T04:16:08.158Z,-0.70
2019-01-04T04:18:34.335Z,-0.60
2019-01-04T04:21:00.528Z,-0.70
2019-01-04T04:23:26.695Z,-0.60
2019-01-04T04:25:52.889Z,-0.60
2019-01-04T04:28:19.062Z,-0.50
2019-01-04T04:30:45.607Z,-0.50
2019-01-04T04:33:11.793Z,-0.40
2019-01-04T04:35:37.985Z,-0.40
2019-01-04T04:38:04.160Z,-0.30
2019-01-04T04:40:30.852Z,-0.20
2019-01-04T04:42:57.219Z,-0.30
2019-01-04T04:45:23.402Z,-0.20
2019-01-04T04:47:49.570Z,-0.10
2019-01-04T04:50:15.773Z,-0.10
2019-01-04T04:52:41.933Z,-0.10
2019-01-04T04:55:08.123Z,0.00
2019-01-04T04:57:34.296Z,0.00
2019-01-04T05:00:00.476Z,0.10
2019-01-04T05:02:26.660Z,0.10
2019-01-04T05:04:52.841Z,0.10
2019-01-04T05:07:19.343Z,0.10
2019-01-04T05:09:45.515Z,0.20
2019-01-04T05:12:11.700Z,0.20
2019-01-04T05:14:37.878Z,0.30
2019-01-04T05:17:04.068Z,0.30
2019-01-04T05:19:30.248Z,0.30
2019-01-04T05:21:56.439Z,0.30
2019-01-04T05:24:22.613Z,0.30
2019-01-04T05:26:48.799Z,0.40
2019-01-04T05:29:14.979Z,0.40
2019-01-04T05:31:41.169Z,0.50
2019-01-04T05:34:07.370Z,0.50
2019-01-04T05:36:33.547Z,0.60
2019-01-04T05:39:00.001Z,0.50
2019-01-04T05:41:26.188Z,0.60
2019-01-04T05:43:52.363Z,0.60
2019-01-04T05:46:18.554Z,0.60
2019-01-04T05:48:44.733Z,0.60
2019-01-04T05:51:10.915Z,0.70
2019-01-04T05:53:37.086Z,0.70
2019-01-04T05:56:03.276Z,0.70
2019-01-04T05:58:29.457Z,0.70
2019-01-04T06:00:55.654Z,0.80
2019-01-04T06:03:21.829Z,0.80
2019-01-04T06:05:48.016Z,0.80
2019-01-04T06:08:14.198Z,0.90
2019-01-04T06:10:40.384Z,0.90
2019-01-04T06:13:06.569Z,1.00
2019-01-04T06:15:32.739Z,1.00
2019-01-04T06:17:58.929Z,1.00
2019-01-04T06:20:25.096Z,1.00
2019-01-04T06:22:51.284Z,1.10
2019-01-04T06:25:17.461Z,1.10
2019-01-04T06:27:44.195Z,1.10
2019-01-04T06:30:10.423Z,1.20
2019-01-04T06:32:36.624Z,1.20
2019-01-04T06:35:03.697Z,1.20
2019-01-04T06:37:29.883Z,1.20
2019-01-04T06:39:56.055Z,1.20
2019-01-04T06:42:22.236Z,1.20
2019-01-04T06:44:48.407Z,1.20
2019-01-04T06:47:15.714Z,1.20
2019-01-04T06:49:42.183Z,1.20
2019-01-04T06:52:08.376Z,1.20
2019-01-04T06:55:13.465Z,1.30
2019-01-04T06:57:39.754Z,1.20
2019-01-04T07:00:07.631Z,1.30
2019-01-04T07:02:33.821Z,1.30
2019-01-04T07:05:00.014Z,1.30
2019-01-04T07:07:26.196Z,1.30
2019-01-04T07:09:52.464Z,1.30
2019-01-04T07:12:18.652Z,1.30
2019-01-04T07:14:44.826Z,1.40
2019-01-04T07:17:11.021Z,1.40
2019-01-04T07:19:37.187Z,1.40
2019-01-04T07:22:03.374Z,1.40
2019-01-04T07:24:29.559Z,1.40
2019-01-04T07:26:55.748Z,1.40
2019-01-04T07:29:21.918Z,1.40
2019-01-04T07:31:48.112Z,1.50
2019-01-04T07:34:14.305Z,1.50
2019-01-04T07:36:40.491Z,1.60
2019-01-04T07:39:06.664Z,1.60
2019-01-04T07:41:32.850Z,1.60
2019-01-04T07:43:59.025Z,1.60
2019-01-04T07:46:25.209Z,1.70
2019-01-04T07:48:51.483Z,1.70
2019-01-04T07:51:18.020Z,1.70
2019-01-04T07:53:44.207Z,1.70
2019-01-04T07:56:10.391Z,1.70
2019-01-04T07:58:36.582Z,1.80
2019-01-04T08:01:02.755Z,1.80
2019-01-04T08:03:28.942Z,1.80
2019-01-04T08:05:55.119Z,1.80
2019-01-04T08:08:21.308Z,1.80
2019-01-04T08:10:47.487Z,1.80
2019-01-04T08:13:13.678Z,1.90
2019-01-04T08:15:39.856Z,1.90
2019-01-04T08:18:06.043Z,1.90
2019-01-04T08:20:32.218Z,2.00
2019-01-04T08:22:58.404Z,2.00
2019-01-04T08:25:24.574Z,2.00
2019-01-04T08:27:50.765Z,2.10
2019-01-04T08:30:16.940Z,2.00
2019-01-04T08:32:43.135Z,2.10
2019-01-04T08:35:09.312Z,2.10
2019-01-04T08:37:35.505Z,2.10
2019-01-04T08:40:02.989Z,2.10
2019-01-04T08:42:29.528Z,2.10
2019-01-04T08:44:55.702Z,2.10
2019-01-04T08:47:22.199Z,2.10
2019-01-04T08:49:48.371Z,2.10
2019-01-04T08:52:14.560Z,2.10
2019-01-04T08:54:40.735Z,2.20
2019-01-04T08:57:07.210Z,2.20
2019-01-04T08:59:33.379Z,2.30
2019-01-04T09:01:59.568Z,2.30
2019-01-04T09:04:25.743Z,2.30
2019-01-04T09:06:51.920Z,2.30
2019-01-04T09:09:18.103Z,2.30
2019-01-04T09:11:44.289Z,2.30
2019-01-04T09:14:10.473Z,2.40
2019-01-04T09:16:36.708Z,2.40
2019-01-04T09:19:02.834Z,2.50
2019-01-04T09:21:29.014Z,2.50
2019-01-04T09:23:55.197Z,2.50
2019-01-04T09:26:21.631Z,2.50
2019-01-04T09:28:47.816Z,2.50
2019-01-04T09:31:14.000Z,2.60
2019-01-04T09:33:40.200Z,2.60
2019-01-04T09:36:06.371Z,2.60
2019-01-04T09:38:32.561Z,2.60
2019-01-04T09:41:24.417Z,2.60
2019-01-04T09:43:50.600Z,2.70
2019-01-04T09:46:16.783Z,2.80
2019-01-04T09:48:42.978Z,2.90
2019-01-04T09:51:09.151Z,3.00
2019-01-04T09:53:35.345Z,3.00
